createdAt,value
2022-12-20T00:01:32.836Z,74.05
2022-12-20T00:06:36.963Z,74.68
2022-12-20T00:11:42.429Z,74.32
2022-12-20T00:16:45.373Z,73.97
2022-12-20T00:21:48.186Z,74.27
2022-12-20T00:26:52.347Z,74.58
2022-12-20T00:31:55.240Z,74.28
2022-12-20T00:36:58.100Z,75.20
2022-12-20T00:42:02.313Z,75.15
2022-12-20T00:47:05.159Z,74.65
2022-12-20T00:52:08.091Z,74.15
2022-12-20T00:57:12.254Z,74.15
2022-12-20T01:02:15.358Z,74.32
2022-12-20T01:07:19.545Z,73.95
2022-12-20T01:12:23.701Z,75.22
2022-12-20T01:17:26.478Z,74.15
2022-12-20T01:22:29.392Z,73.75
2022-12-20T01:27:33.643Z,74.07
2022-12-20T01:32:36.494Z,74.26
2022-12-20T01:37:39.390Z,72.91
2022-12-20T01:42:43.632Z,72.72
2022-12-20T01:47:46.557Z,73.52
2022-12-20T01:52:49.718Z,72.49
2022-12-20T01:57:59.383Z,72.52
2022-12-20T02:03:05.998Z,73.53
2022-12-20T02:08:10.406Z,72.71
2022-12-20T02:13:26.020Z,72.13
2022-12-20T02:18:34.785Z,73.29
2022-12-20T02:24:17.173Z,72.83
2022-12-20T02:29:35.328Z,72.98
2022-12-20T02:34:41.333Z,72.10
2022-12-20T02:39:47.316Z,71.17
2022-12-20T02:45:13.117Z,70.98
2022-12-20T02:50:19.921Z,71.21
2022-12-20T02:55:25.886Z,71.81
2022-12-20T03:00:34.363Z,71.32
2022-12-20T03:05:47.117Z,71.41
2022-12-20T03:10:54.893Z,71.03
2022-12-20T03:15:58.065Z,70.95
2022-12-20T03:21:02.385Z,71.14
2022-12-20T03:26:05.716Z,71.52
2022-12-20T03:31:13.812Z,72.75
2022-12-20T03:36:28.481Z,72.94
2022-12-20T03:41:35.065Z,73.00
2022-12-20T03:46:38.480Z,72.53
2022-12-20T03:51:42.920Z,72.27
2022-12-20T03:56:45.790Z,72.08
2022-12-20T04:01:48.846Z,72.13
2022-12-20T04:06:53.177Z,71.74
2022-12-20T04:11:56.333Z,71.77
2022-12-20T04:16:59.905Z,72.80
2022-12-20T04:22:06.477Z,74.97
2022-12-20T04:27:25.434Z,76.58
2022-12-20T04:32:30.970Z,77.89
2022-12-20T04:37:35.413Z,79.28
2022-12-20T04:42:38.473Z,79.86
2022-12-20T04:47:41.484Z,81.08
2022-12-20T04:53:05.040Z,82.04
2022-12-20T04:58:09.407Z,81.86
2022-12-20T05:03:16.195Z,82.31
2022-12-20T05:08:20.548Z,82.31
2022-12-20T05:13:26.753Z,82.03
2022-12-20T05:18:29.862Z,81.76
2022-12-20T05:23:56.226Z,81.48
2022-12-20T05:29:01.688Z,81.59
2022-12-20T05:34:04.864Z,81.18
2022-12-20T05:39:12.929Z,81.02
2022-12-20T05:44:18.424Z,80.77
2022-12-20T05:49:25.115Z,80.80
2022-12-20T05:54:30.406Z,80.69
2022-12-20T05:59:46.990Z,81.26
2022-12-20T06:04:55.561Z,81.88
2022-12-20T06:10:01.518Z,81.97
2022-12-20T06:15:18.435Z,82.20
2022-12-20T06:20:21.811Z,82.64
2022-12-20T06:25:27.909Z,82.78
2022-12-20T06:30:34.089Z,82.94
2022-12-20T06:35:50.770Z,83.60
2022-12-20T06:40:58.295Z,83.29
2022-12-20T06:46:01.946Z,82.60
2022-12-20T06:51:05.228Z,82.76
2022-12-20T06:56:09.876Z,81.86
2022-12-20T07:01:12.856Z,81.66
2022-12-20T07:06:15.893Z,81.44
2022-12-20T07:11:20.220Z,81.70
2022-12-20T07:16:23.161Z,82.08
2022-12-20T07:21:26.165Z,81.97
2022-12-20T07:26:30.594Z,81.75
2022-12-20T07:31:33.502Z,81.35
2022-12-20T07:36:36.535Z,80.99
2022-12-20T07:41:41.496Z,80.89
2022-12-20T07:46:51.133Z,80.77
2022-12-20T07:51:57.233Z,80.67
2022-12-20T07:57:08.391Z,79.83
2022-12-20T08:02:18.814Z,80.15
2022-12-20T08:07:22.073Z,79.57
2022-12-20T08:12:29.008Z,79.36
2022-12-20T08:17:31.949Z,78.83
2022-12-20T08:22:34.883Z,78.12
2022-12-20T08:27:39.757Z,76.98
2022-12-20T08:32:42.690Z,76.73
2022-12-20T08:37:46.980Z,76.17
2022-12-20T08:42:51.630Z,75.54
2022-12-20T08:47:54.994Z,74.78
2022-12-20T08:52:58.342Z,73.64
2022-12-20T08:58:03.020Z,72.33
2022-12-20T09:03:07.537Z,71.84
2022-12-20T09:08:10.607Z,71.85
2022-12-20T09:13:14.966Z,71.79
2022-12-20T09:18:17.895Z,71.44
2022-12-20T09:23:20.879Z,71.10
2022-12-20T09:28:25.368Z,70.16
2022-12-20T09:33:28.956Z,69.09
2022-12-20T09:38:32.400Z,68.00
2022-12-20T09:43:38.690Z,66.00
2022-12-20T09:48:41.950Z,66.56
2022-12-20T09:53:57.185Z,66.82
2022-12-20T09:59:03.932Z,67.77
2022-12-20T10:04:12.063Z,67.36
2022-12-20T10:09:41.317Z,66.85
2022-12-20T10:15:05.524Z,67.66
2022-12-20T10:20:26.609Z,67.57
2022-12-20T10:25:32.337Z,66.62
2022-12-20T10:30:36.747Z,65.91
2022-12-20T10:35:41.597Z,65.85
2022-12-20T10:41:20.206Z,65.64
2022-12-20T10:46:11.878Z,65.95
2022-12-20T10:51:17.449Z,65.75
2022-12-20T10:56:22.737Z,65.14
2022-12-20T11:01:31.979Z,64.73
2022-12-20T11:06:46.479Z,64.83
2022-12-20T11:12:00.305Z,64.75
2022-12-20T11:17:14.796Z,64.54
2022-12-20T11:22:32.435Z,64.81
2022-12-20T11:27:45.223Z,64.19
2022-12-20T11:33:02.967Z,63.79
2022-12-20T11:38:14.759Z,63.50
2022-12-20T11:43:32.116Z,64.07
2022-12-20T11:48:52.918Z,63.54
2022-12-20T11:54:01.461Z,62.97
2022-12-20T11:59:08.305Z,62.81
2022-12-20T12:04:18.143Z,63.36
2022-12-20T12:09:27.199Z,63.04
2022-12-20T12:14:36.554Z,63.13
2022-12-20T12:19:44.455Z,62.12
2022-12-20T12:24:53.558Z,62.41
2022-12-20T12:29:58.959Z,63.27
2022-12-20T12:35:19.060Z,63.53
2022-12-20T12:40:53.020Z,64.04
2022-12-20T12:45:59.484Z,65.27
2022-12-20T12:51:05.373Z,66.46
2022-12-20T12:56:44.493Z,67.09
2022-12-20T13:01:50.528Z,67.28
2022-12-20T13:07:04.644Z,66.95
2022-12-20T13:12:50.765Z,66.78
2022-12-20T13:17:55.114Z,66.24
2022-12-20T13:23:17.319Z,67.40
2022-12-20T13:28:46.354Z,69.12
2022-12-20T13:33:50.216Z,69.73
2022-12-20T13:38:59.909Z,69.55
2022-12-20T13:44:24.930Z,69.90
2022-12-20T13:49:30.831Z,70.20
2022-12-20T13:54:36.860Z,70.55
2022-12-20T13:59:40.016Z,69.95
2022-12-20T14:04:47.706Z,69.19
2022-12-20T14:09:59.684Z,68.46
2022-12-20T14:15:02.664Z,68.05
2022-12-20T14:20:08.481Z,68.00
2022-12-20T14:25:18.106Z,68.73
2022-12-20T14:30:30.019Z,68.45
2022-12-20T14:35:33.121Z,69.27
2022-12-20T14:40:42.318Z,70.01
2022-12-20T14:45:45.384Z,69.36
2022-12-20T14:50:54.340Z,68.97
2022-12-20T14:55:58.829Z,68.32
2022-12-20T15:01:03.868Z,68.40
2022-12-20T15:06:27.421Z,68.84
2022-12-20T15:11:32.547Z,68.62
2022-12-20T15:16:35.625Z,70.38
2022-12-20T15:21:42.994Z,70.74
2022-12-20T15:26:49.258Z,73.26
2022-12-20T15:31:53.109Z,77.10
2022-12-20T15:36:56.821Z,83.93
2022-12-20T15:42:03.898Z,87.23
2022-12-20T15:47:06.967Z,87.62
2022-12-20T15:52:17.319Z,88.13
2022-12-20T15:57:21.987Z,89.43
2022-12-20T16:02:27.329Z,89.56
2022-12-20T16:07:30.559Z,90.56
2022-12-20T16:12:38.643Z,90.21
2022-12-20T16:17:41.608Z,90.69
2022-12-20T16:22:44.744Z,89.83
2022-12-20T16:27:49.299Z,90.02
2022-12-20T16:32:52.345Z,91.10
2022-12-20T16:37:57.163Z,91.03
2022-12-20T16:43:01.820Z,90.77
2022-12-20T16:48:05.101Z,90.85
2022-12-20T16:53:08.300Z,90.19
2022-12-20T16:58:12.740Z,90.61
2022-12-20T17:03:15.934Z,89.90
2022-12-20T17:13:41.387Z,90.35
2022-12-20T17:18:46.282Z,90.16
2022-12-20T17:23:50.879Z,89.62
2022-12-20T17:28:57.791Z,89.21
2022-12-20T17:34:02.972Z,89.29
2022-12-20T17:39:05.999Z,89.63
2022-12-20T17:44:18.399Z,88.70
2022-12-20T17:49:23.049Z,90.09
2022-12-20T17:54:30.786Z,89.67
2022-12-20T17:59:39.559Z,89.35
2022-12-20T18:04:44.870Z,89.96
2022-12-20T18:09:48.870Z,90.20
2022-12-20T18:14:54.739Z,90.07
2022-12-20T18:20:03.164Z,89.65
2022-12-20T18:25:08.757Z,89.14
2022-12-20T18:30:14.061Z,88.88
2022-12-20T18:35:17.421Z,88.84
2022-12-20T18:40:20.534Z,89.09
2022-12-20T18:45:25.824Z,88.73
2022-12-20T18:50:28.743Z,88.59
2022-12-20T18:55:32.271Z,87.85
2022-12-20T19:00:36.639Z,87.77
2022-12-20T19:05:39.744Z,88.06
2022-12-20T19:10:42.712Z,88.37
2022-12-20T19:15:47.276Z,88.17
2022-12-20T19:20:50.296Z,87.97
2022-12-20T19:25:53.207Z,87.90
2022-12-20T19:30:57.601Z,87.52
2022-12-20T19:36:00.529Z,87.35
2022-12-20T19:41:03.400Z,87.05
2022-12-20T19:46:08.202Z,86.59
2022-12-20T19:51:12.684Z,86.06
2022-12-20T19:56:17.282Z,85.75
2022-12-20T20:01:25.418Z,85.29
2022-12-20T20:06:29.583Z,85.37
2022-12-20T20:11:32.460Z,85.22
2022-12-20T20:16:36.770Z,85.68
2022-12-20T20:21:39.875Z,85.97
2022-12-20T20:26:43.254Z,86.28
2022-12-20T20:31:47.544Z,86.83
2022-12-20T20:36:50.808Z,87.16
2022-12-20T20:41:53.678Z,87.22
2022-12-20T20:46:57.964Z,87.56
2022-12-20T20:52:00.872Z,87.75
2022-12-20T20:57:03.770Z,87.88
2022-12-20T21:02:08.293Z,88.38
2022-12-20T21:07:11.361Z,88.21
2022-12-20T21:12:15.534Z,88.63
2022-12-20T21:17:20.068Z,88.62
2022-12-20T21:22:23.075Z,88.77
2022-12-20T21:27:26.223Z,89.35
2022-12-20T21:32:30.509Z,89.32
2022-12-20T21:37:33.589Z,89.41
2022-12-20T21:42:36.699Z,89.58
2022-12-20T21:47:41.009Z,89.59
2022-12-20T21:52:43.812Z,89.47
2022-12-20T21:57:48.040Z,90.40
2022-12-20T22:02:52.357Z,91.06
2022-12-20T22:07:55.243Z,90.92
2022-12-20T22:12:58.096Z,91.81
2022-12-20T22:18:02.272Z,91.26
2022-12-20T22:23:05.478Z,91.92
2022-12-20T22:28:08.373Z,91.55
2022-12-20T22:33:12.691Z,91.40
2022-12-20T22:38:15.858Z,91.98
2022-12-20T22:43:18.758Z,91.30
2022-12-20T22:48:23.051Z,91.55
2022-12-20T22:53:25.891Z,91.57
2022-12-20T22:58:29.175Z,91.58
2022-12-20T23:03:33.684Z,91.44
2022-12-20T23:08:37.959Z,91.51
2022-12-20T23:13:58.964Z,91.93
2022-12-20T23:19:03.253Z,91.85
2022-12-20T23:24:06.576Z,91.76
2022-12-20T23:29:10.045Z,91.73
2022-12-20T23:34:14.273Z,91.79
2022-12-20T23:39:17.109Z,92.08
2022-12-20T23:44:19.948Z,92.24
2022-12-20T23:49:24.162Z,91.84
2022-12-20T23:54:26.954Z,91.77
2022-12-20T23:59:29.722Z,91.87
